createdAt,value
2024-02-05T00:00:21.785Z,73.34
2024-02-05T00:05:23.222Z,72.74
2024-02-05T00:10:24.560Z,73.96
2024-02-05T00:15:25.854Z,73.75
2024-02-05T00:20:27.109Z,74.47
2024-02-05T00:25:28.589Z,74.79
2024-02-05T00:30:30.037Z,74.89
2024-02-05T00:35:31.289Z,74.76
2024-02-05T00:40:32.946Z,75.02
2024-02-05T00:45:34.283Z,74.18
2024-02-05T00:50:35.633Z,74.84
2024-02-05T00:55:36.860Z,74.73
2024-02-05T01:00:38.202Z,75.28
2024-02-05T01:05:39.784Z,75.88
2024-02-05T01:10:41.264Z,76.05
2024-02-05T01:15:42.616Z,76.03
2024-02-05T01:20:44.935Z,76.11
2024-02-05T01:25:46.225Z,76.23
2024-02-05T01:30:47.465Z,76.20
2024-02-05T01:35:48.742Z,76.31
2024-02-05T01:40:50.502Z,76.12
2024-02-05T01:45:51.777Z,76.05
2024-02-05T01:50:53.341Z,75.92
2024-02-05T01:55:54.671Z,76.31
2024-02-05T02:00:55.973Z,76.82
2024-02-05T02:05:57.272Z,77.22
2024-02-05T02:10:58.493Z,77.41
2024-02-05T02:15:59.875Z,77.64
2024-02-05T02:21:03.807Z,77.58
2024-02-05T02:26:05.171Z,77.96
2024-02-05T02:31:06.515Z,77.62
2024-02-05T02:36:07.860Z,78.00
2024-02-05T02:41:09.155Z,78.25
2024-02-05T02:46:10.562Z,78.05
2024-02-05T02:51:11.825Z,77.82
2024-02-05T02:56:13.126Z,77.40
2024-02-05T03:01:14.518Z,77.25
2024-02-05T03:06:15.918Z,76.80
2024-02-05T03:11:17.181Z,77.15
2024-02-05T03:16:18.724Z,76.13
2024-02-05T03:21:20.019Z,75.20
2024-02-05T03:26:21.289Z,75.09
2024-02-05T03:31:22.590Z,74.51
2024-02-05T03:36:24.156Z,74.70
2024-02-05T03:41:25.406Z,74.38
2024-02-05T03:46:26.711Z,74.77
2024-02-05T03:51:27.974Z,74.57
2024-02-05T03:56:29.279Z,74.46
2024-02-05T04:01:31.404Z,73.53
2024-02-05T04:06:32.864Z,73.65
2024-02-05T04:11:34.475Z,73.82
2024-02-05T04:16:35.774Z,72.19
2024-02-05T04:21:37.076Z,72.47
2024-02-05T04:26:38.351Z,72.41
2024-02-05T04:31:39.579Z,72.81
2024-02-05T04:36:40.839Z,72.33
2024-02-05T04:41:42.156Z,71.89
2024-02-05T04:46:43.429Z,73.42
2024-02-05T04:51:44.699Z,72.60
2024-02-05T04:56:46.399Z,72.70
2024-02-05T05:01:47.794Z,72.65
2024-02-05T05:06:49.178Z,72.85
2024-02-05T05:11:50.487Z,73.08
2024-02-05T05:16:51.729Z,73.26
2024-02-05T05:21:53.084Z,73.63
2024-02-05T05:26:54.404Z,74.16
2024-02-05T05:31:55.669Z,73.02
2024-02-05T05:36:56.971Z,73.44
2024-02-05T05:41:58.543Z,72.54
2024-02-05T05:46:59.837Z,73.00
2024-02-05T05:52:01.130Z,73.26
2024-02-05T05:57:02.556Z,73.09
2024-02-05T06:02:04.072Z,73.32
2024-02-05T06:07:07.438Z,72.41
2024-02-05T06:12:08.705Z,73.44
2024-02-05T06:17:09.998Z,72.12
2024-02-05T06:22:12.094Z,73.79
2024-02-05T06:27:13.504Z,72.71
2024-02-05T06:32:14.694Z,72.24
2024-02-05T06:37:15.997Z,72.17
2024-02-05T06:42:17.375Z,73.05
2024-02-05T06:47:18.664Z,72.80
2024-02-05T06:52:21.143Z,71.69
2024-02-05T06:57:22.428Z,71.88
2024-02-05T07:02:24.541Z,71.98
2024-02-05T07:07:28.906Z,71.80
2024-02-05T07:12:30.571Z,71.78
2024-02-05T07:17:32.297Z,72.73
2024-02-05T07:22:33.616Z,73.16
2024-02-05T07:27:36.688Z,74.06
2024-02-05T07:32:37.991Z,73.49
2024-02-05T07:37:39.423Z,72.64
2024-02-05T07:42:41.005Z,73.12
2024-02-05T07:47:42.457Z,72.87
2024-02-05T07:52:43.843Z,72.55
2024-02-05T07:57:45.226Z,72.79
2024-02-05T08:02:46.478Z,72.87
2024-02-05T08:07:47.883Z,73.30
2024-02-05T08:12:49.214Z,72.74
2024-02-05T08:17:50.659Z,72.49
2024-02-05T08:22:53.338Z,72.21
2024-02-05T08:27:58.961Z,72.48
2024-02-05T08:33:00.539Z,71.24
2024-02-05T08:38:01.895Z,71.05
2024-02-05T08:43:03.382Z,70.81
2024-02-05T08:48:04.742Z,71.83
2024-02-05T08:53:06.027Z,72.26
2024-02-05T08:58:07.351Z,71.29
2024-02-05T09:03:12.004Z,71.89
2024-02-05T09:08:13.956Z,70.44
2024-02-05T09:13:17.328Z,69.13
2024-02-05T09:18:19.129Z,70.28
2024-02-05T09:23:20.529Z,70.33
2024-02-05T09:28:22.992Z,69.42
2024-02-05T09:33:24.485Z,70.13
2024-02-05T09:38:25.792Z,69.26
2024-02-05T09:43:27.103Z,69.11
2024-02-05T09:48:36.983Z,69.87
2024-02-05T09:53:41.785Z,69.18
2024-02-05T09:58:43.152Z,68.07
2024-02-05T10:03:44.487Z,67.85
2024-02-05T10:08:45.810Z,67.47
2024-02-05T10:13:47.037Z,68.32
2024-02-05T10:18:48.317Z,66.71
2024-02-05T10:23:49.602Z,67.34
2024-02-05T10:28:50.900Z,65.14
2024-02-05T10:33:52.345Z,65.95
2024-02-05T10:38:53.786Z,65.75
2024-02-05T10:43:55.076Z,64.84
2024-02-05T10:48:56.475Z,63.83
2024-02-05T10:53:57.742Z,63.46
2024-02-05T10:59:00.968Z,60.54
2024-02-05T11:04:03.587Z,61.93
2024-02-05T11:09:05.956Z,61.54
2024-02-05T11:14:09.309Z,62.60
2024-02-05T11:19:10.779Z,60.43
2024-02-05T11:24:12.947Z,60.80
2024-02-05T11:29:14.192Z,59.92
2024-02-05T11:34:17.959Z,60.17
2024-02-05T11:39:19.398Z,57.96
2024-02-05T11:44:20.671Z,59.58
2024-02-05T11:49:22.234Z,58.20
2024-02-05T11:54:23.582Z,58.89
2024-02-05T11:59:25.166Z,57.67
2024-02-05T12:04:26.773Z,57.37
2024-02-05T12:09:28.183Z,56.91
2024-02-05T12:14:32.195Z,55.28
2024-02-05T12:19:33.467Z,53.92
2024-02-05T12:24:34.847Z,52.12
2024-02-05T12:29:36.196Z,52.30
2024-02-05T12:34:37.801Z,51.62
2024-02-05T12:39:42.855Z,50.60
2024-02-05T12:44:50.099Z,51.14
2024-02-05T12:49:58.207Z,51.67
2024-02-05T12:54:59.727Z,50.65
2024-02-05T13:00:01.430Z,49.63
2024-02-05T13:10:04.730Z,48.25
2024-02-05T13:15:06.237Z,49.55
2024-02-05T13:20:07.544Z,49.26
2024-02-05T13:25:08.909Z,48.61
2024-02-05T13:30:10.293Z,47.38
2024-02-05T13:35:11.585Z,45.87
2024-02-05T13:40:13.442Z,45.52
2024-02-05T13:45:14.779Z,44.27
2024-02-05T13:50:16.044Z,44.38
2024-02-05T13:55:17.493Z,45.31
2024-02-05T14:00:18.869Z,46.56
2024-02-05T14:05:20.433Z,47.92
2024-02-05T14:10:21.862Z,47.42
2024-02-05T14:15:23.261Z,48.06
2024-02-05T14:20:24.892Z,49.67
2024-02-05T14:25:26.241Z,49.96
2024-02-05T14:30:27.536Z,49.78
2024-02-05T14:35:28.871Z,50.02
2024-02-05T14:40:30.360Z,50.56
2024-02-05T14:45:31.613Z,51.36
2024-02-05T14:50:33.078Z,52.34
2024-02-05T14:55:34.612Z,52.24
2024-02-05T15:00:35.988Z,52.22
2024-02-05T15:05:37.379Z,53.03
2024-02-05T15:10:39.141Z,53.99
2024-02-05T15:15:40.542Z,54.27
2024-02-05T15:20:42.395Z,54.79
2024-02-05T15:25:43.705Z,55.14
2024-02-05T15:30:45.070Z,55.50
2024-02-05T15:35:47.856Z,55.92
2024-02-05T15:40:49.181Z,56.92
2024-02-05T15:45:50.444Z,57.76
2024-02-05T15:50:52.055Z,57.64
2024-02-05T15:55:54.445Z,58.43
2024-02-05T16:00:56.228Z,59.26
2024-02-05T16:05:59.430Z,70.02
2024-02-05T16:11:00.865Z,59.06
2024-02-05T16:16:02.153Z,59.51
2024-02-05T16:21:03.562Z,59.61
2024-02-05T16:26:05.111Z,60.13
2024-02-05T16:31:06.506Z,60.44
2024-02-05T16:36:07.793Z,60.70
2024-02-05T16:41:11.066Z,60.97
2024-02-05T16:46:13.204Z,61.01
2024-02-05T16:51:16.399Z,60.34
2024-02-05T16:56:17.710Z,60.52
2024-02-05T17:01:19.678Z,60.17
2024-02-05T17:06:21.083Z,59.96
2024-02-05T17:11:23.065Z,60.68
2024-02-05T17:16:24.406Z,60.33
2024-02-05T17:21:25.738Z,60.31
2024-02-05T17:26:26.939Z,60.33
2024-02-05T17:31:28.171Z,61.85
2024-02-05T17:36:29.428Z,62.40
2024-02-05T17:41:31.263Z,63.70
2024-02-05T17:46:35.103Z,65.08
2024-02-05T17:51:36.383Z,64.78
2024-02-05T17:56:38.428Z,64.04
2024-02-05T18:01:39.768Z,64.49
2024-02-05T18:06:41.085Z,64.51
2024-02-05T18:11:42.526Z,65.09
2024-02-05T18:16:43.809Z,65.92
2024-02-05T18:21:45.277Z,66.52
2024-02-05T18:26:46.752Z,65.08
2024-02-05T18:31:52.561Z,64.34
2024-02-05T18:36:53.842Z,63.81
2024-02-05T18:41:55.147Z,62.95
2024-02-05T18:46:57.585Z,62.17
2024-02-05T18:52:03.732Z,61.39
2024-02-05T18:57:06.218Z,61.84
2024-02-05T19:02:07.636Z,64.41
2024-02-05T19:07:08.965Z,64.40
2024-02-05T19:12:10.338Z,66.14
2024-02-05T19:17:11.613Z,65.15
2024-02-05T19:22:13.027Z,64.80
2024-02-05T19:27:14.326Z,65.07
2024-02-05T19:32:16.593Z,65.24
2024-02-05T19:37:17.931Z,66.47
2024-02-05T19:42:19.199Z,67.45
2024-02-05T19:47:20.523Z,66.91
2024-02-05T19:52:22.570Z,67.29
2024-02-05T19:57:23.831Z,67.67
2024-02-05T20:02:25.114Z,67.62
2024-02-05T20:07:26.627Z,67.13
2024-02-05T20:12:27.950Z,67.51
2024-02-05T20:17:29.279Z,66.70
2024-02-05T20:22:30.690Z,66.72
2024-02-05T20:27:33.618Z,66.84
2024-02-05T20:32:35.094Z,65.75
2024-02-05T20:37:36.521Z,66.89
2024-02-05T20:42:37.775Z,67.35
2024-02-05T20:47:39.006Z,67.71
2024-02-05T20:52:40.368Z,69.73
2024-02-05T20:57:41.727Z,69.78
2024-02-05T21:02:42.993Z,70.30
2024-02-05T21:07:44.312Z,70.33
2024-02-05T21:12:47.551Z,69.40
2024-02-05T21:17:48.831Z,68.97
2024-02-05T21:22:50.140Z,68.93
2024-02-05T21:27:51.468Z,68.81
2024-02-05T21:32:52.779Z,70.19
2024-02-05T21:37:54.008Z,69.86
2024-02-05T21:42:55.281Z,69.51
2024-02-05T21:47:56.624Z,70.04
2024-02-05T21:52:57.952Z,69.61
2024-02-05T21:57:59.192Z,70.82
2024-02-05T22:03:00.667Z,71.37
2024-02-05T22:08:03.650Z,72.28
2024-02-05T22:13:04.930Z,72.66
2024-02-05T22:18:06.346Z,72.41
2024-02-05T22:23:07.672Z,71.89
2024-02-05T22:28:08.939Z,72.51
2024-02-05T22:33:10.448Z,72.55
2024-02-05T22:38:11.677Z,74.17
2024-02-05T22:43:15.932Z,74.47
2024-02-05T22:48:19.108Z,74.76
2024-02-05T22:53:20.430Z,75.97
2024-02-05T22:58:21.677Z,74.44
2024-02-05T23:03:22.941Z,74.09
2024-02-05T23:08:24.224Z,74.19
2024-02-05T23:13:25.530Z,72.84
2024-02-05T23:18:26.912Z,72.53
2024-02-05T23:23:29.224Z,72.64
2024-02-05T23:28:30.646Z,73.72
2024-02-05T23:33:32.253Z,73.42
2024-02-05T23:38:33.723Z,73.95
2024-02-05T23:43:34.945Z,75.14
2024-02-05T23:48:36.322Z,74.30
2024-02-05T23:53:37.711Z,73.04
2024-02-05T23:58:39.083Z,74.27
